Etusivu
METAR-TAF:

METAR-TAF

Lentoasemat :

Sotilaslentoasema Cameri

Novara, Italia

Leveyspiiri: 45-31N, Pituuspiiri: 008-40E, korkeus merenpinnasta: 178 m

Tämänhetkinen sää

Tämä raportti tehtiin 2 tuntia ja 39 minuuttia sitten, kello 12.55 UTC
Tuuli 5 kn lounaasta, vaihdellen kaakon ja lännen välillä
Lämpötila 15°C
Kosteus 33%
Ilmanpaine 1031 hPa
Näkyvyys 10 km tai enemmän
ei pilviä alle 1500 m:ssä eikä cumulonimbus-pilviä

METAR: LIMN 211255Z 22005KT 130V280 CAVOK 15/M01 Q1031 RMK SKC VIS MIN 9999 BLU

Aika: 16:34 (15:34 UTC)

Sääennuste

Tämä raportti tehtiin 4 tuntia ja 34 minuuttia sitten, kello 11.00 UTC
Ennuste voimassa 21. päivästä klo 12 UTC - 21. päivään klo 21 UTC
Tuuli 5 kn lännestä
Näkyvyys 10 km tai enemmän
ei pilviä alle 1500 m:ssä eikä cumulonimbus-pilviä

TAF: LIMN 211100Z 2112/2121 28005KT CAVOK

Säähavainnot ja -ennusteet yli 4000 lentoasemalta (METAR- ja TAF-raportit).

Käytössä olevat sääasemat on merkitty karttaan keltaisilla ja punaisilla pisteillä.

Aseta hiiri pisteen päälle nähdäksesi sääaseman nimen.

Klikkaa sitten nähdäksesi säähavainnot ja -ennusteet.

Kartan vaihtaminen: klikkaa mustalla rastilla varustettuja vihreitä pisteitä, niin voit zoomata sisään; viivalla varustettua vihreää pistettä, niin voit zoomata ulos tai vihreitä nuolia, niin pääset viereisille kartoille.


METAR-TAF: